sensor_id;sensor_type;location;lat;lon;timestamp;P1;durP1;ratioP1;P2;durP2;ratioP2
4726;SDS011;2377;51.734;8.950;2023-01-24T00:00:21;12.13;;;7.23;;
4726;SDS011;2377;51.734;8.950;2023-01-24T00:02:48;10.40;;;7.00;;
4726;SDS011;2377;51.734;8.950;2023-01-24T00:05:15;13.30;;;7.33;;
4726;SDS011;2377;51.734;8.950;2023-01-24T00:07:42;11.63;;;7.10;;
4726;SDS011;2377;51.734;8.950;2023-01-24T00:10:11;13.73;;;9.10;;
4726;SDS011;2377;51.734;8.950;2023-01-24T00:12:39;13.30;;;7.47;;
4726;SDS011;2377;51.734;8.950;2023-01-24T00:15:06;12.43;;;7.80;;
4726;SDS011;2377;51.734;8.950;2023-01-24T00:17:34;13.90;;;7.50;;
4726;SDS011;2377;51.734;8.950;2023-01-24T00:20:02;13.50;;;8.00;;
4726;SDS011;2377;51.734;8.950;2023-01-24T00:22:30;13.83;;;8.13;;
4726;SDS011;2377;51.734;8.950;2023-01-24T00:24:57;14.80;;;8.83;;
4726;SDS011;2377;51.734;8.950;2023-01-24T00:27:26;11.93;;;8.00;;
4726;SDS011;2377;51.734;8.950;2023-01-24T00:29:56;15.20;;;8.60;;
4726;SDS011;2377;51.734;8.950;2023-01-24T00:32:23;16.70;;;7.80;;
4726;SDS011;2377;51.734;8.950;2023-01-24T00:34:50;13.57;;;7.27;;
4726;SDS011;2377;51.734;8.950;2023-01-24T00:37:17;15.73;;;9.13;;
4726;SDS011;2377;51.734;8.950;2023-01-24T00:39:44;10.97;;;7.10;;
4726;SDS011;2377;51.734;8.950;2023-01-24T00:42:11;12.40;;;7.43;;
4726;SDS011;2377;51.734;8.950;2023-01-24T00:44:40;12.37;;;7.30;;
4726;SDS011;2377;51.734;8.950;2023-01-24T00:47:07;13.30;;;7.40;;
4726;SDS011;2377;51.734;8.950;2023-01-24T00:49:34;14.50;;;7.60;;
4726;SDS011;2377;51.734;8.950;2023-01-24T00:52:01;13.20;;;6.83;;
4726;SDS011;2377;51.734;8.950;2023-01-24T00:54:28;12.70;;;6.90;;
4726;SDS011;2377;51.734;8.950;2023-01-24T00:56:55;10.27;;;6.23;;
4726;SDS011;2377;51.734;8.950;2023-01-24T00:59:22;9.70;;;6.60;;
4726;SDS011;2377;51.734;8.950;2023-01-24T01:01:50;11.63;;;6.67;;
4726;SDS011;2377;51.734;8.950;2023-01-24T01:04:17;11.70;;;6.60;;
4726;SDS011;2377;51.734;8.950;2023-01-24T01:06:44;10.77;;;7.13;;
4726;SDS011;2377;51.734;8.950;2023-01-24T01:09:11;9.27;;;5.97;;
4726;SDS011;2377;51.734;8.950;2023-01-24T01:11:39;9.73;;;5.87;;
4726;SDS011;2377;51.734;8.950;2023-01-24T01:14:06;13.40;;;6.93;;
4726;SDS011;2377;51.734;8.950;2023-01-24T01:16:35;10.90;;;6.20;;
4726;SDS011;2377;51.734;8.950;2023-01-24T01:19:04;10.40;;;6.40;;
4726;SDS011;2377;51.734;8.950;2023-01-24T01:21:32;11.93;;;6.97;;
4726;SDS011;2377;51.734;8.950;2023-01-24T01:23:59;12.10;;;7.00;;
4726;SDS011;2377;51.734;8.950;2023-01-24T01:26:26;10.90;;;6.50;;
4726;SDS011;2377;51.734;8.950;2023-01-24T01:28:53;10.83;;;6.20;;
4726;SDS011;2377;51.734;8.950;2023-01-24T01:31:20;11.00;;;6.10;;
4726;SDS011;2377;51.734;8.950;2023-01-24T01:33:47;10.00;;;5.60;;
4726;SDS011;2377;51.734;8.950;2023-01-24T01:36:16;9.10;;;6.07;;
4726;SDS011;2377;51.734;8.950;2023-01-24T01:38:43;12.20;;;6.87;;
4726;SDS011;2377;51.734;8.950;2023-01-24T01:41:10;10.23;;;6.43;;
4726;SDS011;2377;51.734;8.950;2023-01-24T01:43:39;13.10;;;6.67;;
4726;SDS011;2377;51.734;8.950;2023-01-24T01:46:27;9.00;;;5.77;;
4726;SDS011;2377;51.734;8.950;2023-01-24T01:49:02;11.10;;;6.60;;
4726;SDS011;2377;51.734;8.950;2023-01-24T01:51:35;10.87;;;6.13;;
4726;SDS011;2377;51.734;8.950;2023-01-24T01:54:12;8.53;;;5.70;;
4726;SDS011;2377;51.734;8.950;2023-01-24T01:56:45;10.40;;;5.63;;
4726;SDS011;2377;51.734;8.950;2023-01-24T01:59:17;11.30;;;6.20;;
4726;SDS011;2377;51.734;8.950;2023-01-24T02:01:56;11.10;;;6.40;;
4726;SDS011;2377;51.734;8.950;2023-01-24T02:04:27;11.93;;;6.97;;
4726;SDS011;2377;51.734;8.950;2023-01-24T02:07:02;12.67;;;6.60;;
4726;SDS011;2377;51.734;8.950;2023-01-24T02:09:36;9.80;;;6.57;;
4726;SDS011;2377;51.734;8.950;2023-01-24T02:12:07;12.47;;;6.17;;
4726;SDS011;2377;51.734;8.950;2023-01-24T02:14:40;10.03;;;6.10;;
4726;SDS011;2377;51.734;8.950;2023-01-24T02:17:27;10.70;;;6.27;;
4726;SDS011;2377;51.734;8.950;2023-01-24T02:20:03;11.07;;;5.97;;
4726;SDS011;2377;51.734;8.950;2023-01-24T02:22:46;9.60;;;6.30;;
4726;SDS011;2377;51.734;8.950;2023-01-24T02:25:29;10.60;;;6.27;;
4726;SDS011;2377;51.734;8.950;2023-01-24T02:28:05;11.10;;;6.50;;
4726;SDS011;2377;51.734;8.950;2023-01-24T02:30:36;10.20;;;6.00;;
4726;SDS011;2377;51.734;8.950;2023-01-24T02:33:11;10.30;;;6.27;;
4726;SDS011;2377;51.734;8.950;2023-01-24T02:35:43;11.97;;;6.60;;
4726;SDS011;2377;51.734;8.950;2023-01-24T02:38:13;12.93;;;7.60;;
4726;SDS011;2377;51.734;8.950;2023-01-24T02:40:46;10.37;;;6.13;;
4726;SDS011;2377;51.734;8.950;2023-01-24T02:43:19;10.60;;;6.30;;
4726;SDS011;2377;51.734;8.950;2023-01-24T02:45:51;10.80;;;6.40;;
4726;SDS011;2377;51.734;8.950;2023-01-24T02:48:18;9.83;;;6.10;;
4726;SDS011;2377;51.734;8.950;2023-01-24T02:50:45;11.40;;;6.17;;
4726;SDS011;2377;51.734;8.950;2023-01-24T02:53:30;11.17;;;6.47;;
4726;SDS011;2377;51.734;8.950;2023-01-24T02:55:57;10.33;;;5.70;;
4726;SDS011;2377;51.734;8.950;2023-01-24T02:58:44;11.30;;;5.83;;
4726;SDS011;2377;51.734;8.950;2023-01-24T03:01:12;10.07;;;6.47;;
4726;SDS011;2377;51.734;8.950;2023-01-24T03:03:40;10.73;;;6.63;;
4726;SDS011;2377;51.734;8.950;2023-01-24T03:06:08;11.67;;;6.50;;
4726;SDS011;2377;51.734;8.950;2023-01-24T03:08:36;11.17;;;6.70;;
4726;SDS011;2377;51.734;8.950;2023-01-24T03:11:04;10.67;;;6.07;;
4726;SDS011;2377;51.734;8.950;2023-01-24T03:13:33;9.50;;;5.80;;
4726;SDS011;2377;51.734;8.950;2023-01-24T03:16:21;8.23;;;5.47;;
4726;SDS011;2377;51.734;8.950;2023-01-24T03:19:06;9.23;;;5.03;;
4726;SDS011;2377;51.734;8.950;2023-01-24T03:21:51;8.90;;;5.23;;
4726;SDS011;2377;51.734;8.950;2023-01-24T03:24:35;8.87;;;5.07;;
4726;SDS011;2377;51.734;8.950;2023-01-24T03:27:20;10.37;;;5.60;;
4726;SDS011;2377;51.734;8.950;2023-01-24T03:30:06;10.93;;;6.63;;
4726;SDS011;2377;51.734;8.950;2023-01-24T03:32:59;8.83;;;5.67;;
4726;SDS011;2377;51.734;8.950;2023-01-24T03:35:44;8.67;;;5.17;;
4726;SDS011;2377;51.734;8.950;2023-01-24T03:38:18;10.23;;;5.67;;
4726;SDS011;2377;51.734;8.950;2023-01-24T03:41:04;10.37;;;6.00;;
4726;SDS011;2377;51.734;8.950;2023-01-24T03:43:31;11.10;;;5.93;;
4726;SDS011;2377;51.734;8.950;2023-01-24T03:45:58;11.10;;;6.20;;
4726;SDS011;2377;51.734;8.950;2023-01-24T03:48:27;11.37;;;6.47;;
4726;SDS011;2377;51.734;8.950;2023-01-24T03:50:59;8.87;;;5.63;;
4726;SDS011;2377;51.734;8.950;2023-01-24T03:53:44;10.70;;;5.33;;
4726;SDS011;2377;51.734;8.950;2023-01-24T03:56:11;10.30;;;5.87;;
4726;SDS011;2377;51.734;8.950;2023-01-24T03:58:38;8.57;;;5.60;;
4726;SDS011;2377;51.734;8.950;2023-01-24T04:01:05;8.60;;;5.47;;
4726;SDS011;2377;51.734;8.950;2023-01-24T04:03:34;9.13;;;5.50;;
4726;SDS011;2377;51.734;8.950;2023-01-24T04:06:01;10.00;;;6.00;;
4726;SDS011;2377;51.734;8.950;2023-01-24T04:08:28;10.33;;;6.17;;
4726;SDS011;2377;51.734;8.950;2023-01-24T04:10:55;9.50;;;5.90;;
4726;SDS011;2377;51.734;8.950;2023-01-24T04:13:23;10.40;;;5.27;;
4726;SDS011;2377;51.734;8.950;2023-01-24T04:15:51;9.20;;;6.17;;
4726;SDS011;2377;51.734;8.950;2023-01-24T04:18:18;8.80;;;4.87;;
4726;SDS011;2377;51.734;8.950;2023-01-24T04:20:46;9.10;;;6.20;;
4726;SDS011;2377;51.734;8.950;2023-01-24T04:23:13;9.73;;;5.60;;
4726;SDS011;2377;51.734;8.950;2023-01-24T04:25:40;9.43;;;5.80;;
4726;SDS011;2377;51.734;8.950;2023-01-24T04:28:07;9.80;;;6.10;;
4726;SDS011;2377;51.734;8.950;2023-01-24T04:30:34;9.40;;;5.90;;
4726;SDS011;2377;51.734;8.950;2023-01-24T04:33:01;9.60;;;6.50;;
4726;SDS011;2377;51.734;8.950;2023-01-24T04:35:29;10.20;;;5.50;;
4726;SDS011;2377;51.734;8.950;2023-01-24T04:38:00;10.23;;;5.93;;
4726;SDS011;2377;51.734;8.950;2023-01-24T04:40:29;10.90;;;7.00;;
4726;SDS011;2377;51.734;8.950;2023-01-24T04:42:56;11.13;;;6.07;;
4726;SDS011;2377;51.734;8.950;2023-01-24T04:45:24;12.57;;;6.90;;
4726;SDS011;2377;51.734;8.950;2023-01-24T04:47:52;9.67;;;5.80;;
4726;SDS011;2377;51.734;8.950;2023-01-24T04:50:20;11.43;;;6.93;;
4726;SDS011;2377;51.734;8.950;2023-01-24T04:52:47;10.90;;;6.23;;
4726;SDS011;2377;51.734;8.950;2023-01-24T04:55:16;9.13;;;6.00;;
4726;SDS011;2377;51.734;8.950;2023-01-24T04:57:43;10.27;;;6.77;;
4726;SDS011;2377;51.734;8.950;2023-01-24T05:00:10;10.20;;;6.20;;
4726;SDS011;2377;51.734;8.950;2023-01-24T05:02:38;8.60;;;5.30;;
4726;SDS011;2377;51.734;8.950;2023-01-24T05:05:05;9.17;;;5.83;;
4726;SDS011;2377;51.734;8.950;2023-01-24T05:07:33;10.83;;;6.50;;
4726;SDS011;2377;51.734;8.950;2023-01-24T05:10:01;9.47;;;6.50;;
4726;SDS011;2377;51.734;8.950;2023-01-24T05:12:29;10.30;;;6.63;;
4726;SDS011;2377;51.734;8.950;2023-01-24T05:14:56;11.40;;;6.63;;
4726;SDS011;2377;51.734;8.950;2023-01-24T05:17:23;8.47;;;5.80;;
4726;SDS011;2377;51.734;8.950;2023-01-24T05:19:50;10.40;;;6.70;;
4726;SDS011;2377;51.734;8.950;2023-01-24T05:22:17;9.83;;;6.30;;
4726;SDS011;2377;51.734;8.950;2023-01-24T05:24:45;11.23;;;6.47;;
4726;SDS011;2377;51.734;8.950;2023-01-24T05:27:12;10.13;;;6.33;;
4726;SDS011;2377;51.734;8.950;2023-01-24T05:29:40;9.17;;;5.80;;
4726;SDS011;2377;51.734;8.950;2023-01-24T05:32:07;11.63;;;7.37;;
4726;SDS011;2377;51.734;8.950;2023-01-24T05:34:34;11.17;;;6.90;;
4726;SDS011;2377;51.734;8.950;2023-01-24T05:37:01;9.83;;;6.20;;
4726;SDS011;2377;51.734;8.950;2023-01-24T05:39:28;10.23;;;6.03;;
4726;SDS011;2377;51.734;8.950;2023-01-24T05:41:55;11.97;;;6.60;;
4726;SDS011;2377;51.734;8.950;2023-01-24T05:44:22;10.60;;;6.00;;
4726;SDS011;2377;51.734;8.950;2023-01-24T05:46:54;10.10;;;6.07;;
4726;SDS011;2377;51.734;8.950;2023-01-24T05:49:21;9.63;;;6.07;;
4726;SDS011;2377;51.734;8.950;2023-01-24T05:51:48;11.77;;;7.13;;
4726;SDS011;2377;51.734;8.950;2023-01-24T05:54:15;9.80;;;5.43;;
4726;SDS011;2377;51.734;8.950;2023-01-24T05:56:42;11.20;;;6.50;;
4726;SDS011;2377;51.734;8.950;2023-01-24T05:59:09;9.40;;;5.63;;
4726;SDS011;2377;51.734;8.950;2023-01-24T06:01:38;10.43;;;6.77;;
4726;SDS011;2377;51.734;8.950;2023-01-24T06:04:07;8.80;;;5.67;;
4726;SDS011;2377;51.734;8.950;2023-01-24T06:06:34;9.07;;;5.47;;
4726;SDS011;2377;51.734;8.950;2023-01-24T06:09:01;10.80;;;6.77;;
4726;SDS011;2377;51.734;8.950;2023-01-24T06:11:28;7.27;;;5.30;;
4726;SDS011;2377;51.734;8.950;2023-01-24T06:13:58;10.20;;;6.23;;
4726;SDS011;2377;51.734;8.950;2023-01-24T06:16:25;7.80;;;5.00;;
4726;SDS011;2377;51.734;8.950;2023-01-24T06:18:53;11.57;;;6.23;;
4726;SDS011;2377;51.734;8.950;2023-01-24T06:21:26;7.27;;;5.07;;
4726;SDS011;2377;51.734;8.950;2023-01-24T06:24:09;10.50;;;5.20;;
4726;SDS011;2377;51.734;8.950;2023-01-24T06:26:44;7.40;;;4.90;;
4726;SDS011;2377;51.734;8.950;2023-01-24T06:29:12;8.97;;;5.23;;
4726;SDS011;2377;51.734;8.950;2023-01-24T06:31:42;9.57;;;5.63;;
4726;SDS011;2377;51.734;8.950;2023-01-24T06:34:27;9.97;;;6.27;;
4726;SDS011;2377;51.734;8.950;2023-01-24T06:37:24;8.33;;;5.13;;
4726;SDS011;2377;51.734;8.950;2023-01-24T06:40:03;8.57;;;5.83;;
4726;SDS011;2377;51.734;8.950;2023-01-24T06:42:37;9.30;;;4.90;;
4726;SDS011;2377;51.734;8.950;2023-01-24T06:45:05;9.40;;;5.80;;
4726;SDS011;2377;51.734;8.950;2023-01-24T06:47:34;7.73;;;5.43;;
4726;SDS011;2377;51.734;8.950;2023-01-24T06:50:02;9.40;;;5.70;;
4726;SDS011;2377;51.734;8.950;2023-01-24T06:52:32;9.60;;;6.03;;
4726;SDS011;2377;51.734;8.950;2023-01-24T06:55:00;9.00;;;5.77;;
4726;SDS011;2377;51.734;8.950;2023-01-24T06:57:27;8.10;;;5.20;;
4726;SDS011;2377;51.734;8.950;2023-01-24T06:59:54;7.37;;;4.90;;
4726;SDS011;2377;51.734;8.950;2023-01-24T07:02:21;10.27;;;5.70;;
4726;SDS011;2377;51.734;8.950;2023-01-24T07:04:48;10.00;;;6.07;;
4726;SDS011;2377;51.734;8.950;2023-01-24T07:07:15;9.57;;;6.57;;
4726;SDS011;2377;51.734;8.950;2023-01-24T07:09:44;8.53;;;5.20;;
4726;SDS011;2377;51.734;8.950;2023-01-24T07:12:11;9.60;;;6.10;;
4726;SDS011;2377;51.734;8.950;2023-01-24T07:14:38;7.97;;;5.33;;
4726;SDS011;2377;51.734;8.950;2023-01-24T07:17:05;9.20;;;5.60;;
4726;SDS011;2377;51.734;8.950;2023-01-24T07:19:33;8.10;;;5.10;;
4726;SDS011;2377;51.734;8.950;2023-01-24T07:22:01;10.50;;;6.10;;
4726;SDS011;2377;51.734;8.950;2023-01-24T07:24:29;9.20;;;5.83;;
4726;SDS011;2377;51.734;8.950;2023-01-24T07:26:58;9.27;;;5.80;;
4726;SDS011;2377;51.734;8.950;2023-01-24T07:29:26;7.43;;;4.80;;
4726;SDS011;2377;51.734;8.950;2023-01-24T07:31:53;6.93;;;4.80;;
4726;SDS011;2377;51.734;8.950;2023-01-24T07:34:20;7.67;;;4.97;;
4726;SDS011;2377;51.734;8.950;2023-01-24T07:36:47;9.23;;;5.57;;
4726;SDS011;2377;51.734;8.950;2023-01-24T07:39:14;7.90;;;5.90;;
4726;SDS011;2377;51.734;8.950;2023-01-24T07:41:42;7.33;;;4.90;;
4726;SDS011;2377;51.734;8.950;2023-01-24T07:44:11;8.57;;;4.70;;
4726;SDS011;2377;51.734;8.950;2023-01-24T07:46:39;6.50;;;4.23;;
4726;SDS011;2377;51.734;8.950;2023-01-24T07:49:06;8.40;;;5.13;;
4726;SDS011;2377;51.734;8.950;2023-01-24T07:51:33;7.57;;;5.20;;
4726;SDS011;2377;51.734;8.950;2023-01-24T07:54:00;8.27;;;5.60;;
4726;SDS011;2377;51.734;8.950;2023-01-24T07:56:28;6.70;;;4.87;;
4726;SDS011;2377;51.734;8.950;2023-01-24T07:58:55;7.93;;;5.33;;
4726;SDS011;2377;51.734;8.950;2023-01-24T08:01:25;8.20;;;5.87;;
4726;SDS011;2377;51.734;8.950;2023-01-24T08:03:53;8.37;;;5.60;;
4726;SDS011;2377;51.734;8.950;2023-01-24T08:06:21;8.40;;;5.90;;
4726;SDS011;2377;51.734;8.950;2023-01-24T08:08:48;8.27;;;5.53;;
4726;SDS011;2377;51.734;8.950;2023-01-24T08:11:15;9.10;;;6.00;;
4726;SDS011;2377;51.734;8.950;2023-01-24T08:13:43;7.93;;;4.80;;
4726;SDS011;2377;51.734;8.950;2023-01-24T08:16:10;7.10;;;5.10;;
4726;SDS011;2377;51.734;8.950;2023-01-24T08:18:39;9.20;;;5.50;;
4726;SDS011;2377;51.734;8.950;2023-01-24T08:21:06;7.67;;;5.30;;
4726;SDS011;2377;51.734;8.950;2023-01-24T08:23:34;9.23;;;5.57;;
4726;SDS011;2377;51.734;8.950;2023-01-24T08:26:02;7.27;;;5.13;;
4726;SDS011;2377;51.734;8.950;2023-01-24T08:28:31;8.50;;;5.67;;
4726;SDS011;2377;51.734;8.950;2023-01-24T08:30:58;7.37;;;4.90;;
4726;SDS011;2377;51.734;8.950;2023-01-24T08:33:26;7.97;;;5.73;;
4726;SDS011;2377;51.734;8.950;2023-01-24T08:35:54;7.50;;;5.50;;
4726;SDS011;2377;51.734;8.950;2023-01-24T08:38:21;9.00;;;5.63;;
4726;SDS011;2377;51.734;8.950;2023-01-24T08:40:50;7.43;;;5.00;;
4726;SDS011;2377;51.734;8.950;2023-01-24T08:43:17;7.73;;;5.40;;
4726;SDS011;2377;51.734;8.950;2023-01-24T08:45:44;7.23;;;5.57;;
4726;SDS011;2377;51.734;8.950;2023-01-24T08:48:11;8.03;;;5.57;;
4726;SDS011;2377;51.734;8.950;2023-01-24T08:50:38;10.30;;;5.80;;
4726;SDS011;2377;51.734;8.950;2023-01-24T08:53:07;7.63;;;5.80;;
4726;SDS011;2377;51.734;8.950;2023-01-24T08:55:35;9.97;;;6.33;;
4726;SDS011;2377;51.734;8.950;2023-01-24T08:58:02;8.80;;;5.37;;
4726;SDS011;2377;51.734;8.950;2023-01-24T09:00:30;9.00;;;6.30;;
4726;SDS011;2377;51.734;8.950;2023-01-24T09:02:58;7.10;;;5.40;;
4726;SDS011;2377;51.734;8.950;2023-01-24T09:05:25;9.70;;;6.37;;
4726;SDS011;2377;51.734;8.950;2023-01-24T09:07:52;8.13;;;6.07;;
4726;SDS011;2377;51.734;8.950;2023-01-24T09:10:25;8.60;;;5.63;;
4726;SDS011;2377;51.734;8.950;2023-01-24T09:12:52;7.23;;;5.17;;
4726;SDS011;2377;51.734;8.950;2023-01-24T09:15:19;8.80;;;6.30;;
4726;SDS011;2377;51.734;8.950;2023-01-24T09:17:46;8.70;;;6.20;;
4726;SDS011;2377;51.734;8.950;2023-01-24T09:20:13;9.93;;;6.37;;
4726;SDS011;2377;51.734;8.950;2023-01-24T09:22:41;8.17;;;5.73;;
4726;SDS011;2377;51.734;8.950;2023-01-24T09:25:09;9.03;;;6.00;;
4726;SDS011;2377;51.734;8.950;2023-01-24T09:27:37;9.07;;;6.63;;
4726;SDS011;2377;51.734;8.950;2023-01-24T09:30:07;10.47;;;6.33;;
4726;SDS011;2377;51.734;8.950;2023-01-24T09:32:36;8.87;;;6.17;;
4726;SDS011;2377;51.734;8.950;2023-01-24T09:35:04;8.67;;;6.43;;
4726;SDS011;2377;51.734;8.950;2023-01-24T09:37:32;8.90;;;6.60;;
4726;SDS011;2377;51.734;8.950;2023-01-24T09:39:59;9.37;;;7.07;;
4726;SDS011;2377;51.734;8.950;2023-01-24T09:42:27;10.43;;;6.87;;
4726;SDS011;2377;51.734;8.950;2023-01-24T09:45:12;9.53;;;7.10;;
4726;SDS011;2377;51.734;8.950;2023-01-24T09:47:49;11.10;;;7.10;;
4726;SDS011;2377;51.734;8.950;2023-01-24T09:50:20;11.67;;;7.63;;
4726;SDS011;2377;51.734;8.950;2023-01-24T09:52:55;9.20;;;7.17;;
4726;SDS011;2377;51.734;8.950;2023-01-24T09:55:24;8.90;;;6.90;;
4726;SDS011;2377;51.734;8.950;2023-01-24T09:57:57;8.70;;;6.63;;
4726;SDS011;2377;51.734;8.950;2023-01-24T10:00:34;10.30;;;6.97;;
4726;SDS011;2377;51.734;8.950;2023-01-24T10:03:08;9.57;;;6.50;;
4726;SDS011;2377;51.734;8.950;2023-01-24T10:05:46;8.80;;;7.00;;
4726;SDS011;2377;51.734;8.950;2023-01-24T10:08:20;9.73;;;7.03;;
4726;SDS011;2377;51.734;8.950;2023-01-24T10:11:02;10.77;;;7.23;;
4726;SDS011;2377;51.734;8.950;2023-01-24T10:13:50;9.30;;;6.90;;
4726;SDS011;2377;51.734;8.950;2023-01-24T10:16:59;9.87;;;7.10;;
4726;SDS011;2377;51.734;8.950;2023-01-24T10:23:12;9.87;;;6.53;;
4726;SDS011;2377;51.734;8.950;2023-01-24T10:25:50;9.07;;;6.80;;
4726;SDS011;2377;51.734;8.950;2023-01-24T10:28:24;8.83;;;6.93;;
4726;SDS011;2377;51.734;8.950;2023-01-24T10:31:02;9.67;;;6.87;;
4726;SDS011;2377;51.734;8.950;2023-01-24T10:33:37;8.87;;;6.30;;
4726;SDS011;2377;51.734;8.950;2023-01-24T10:36:13;11.83;;;8.53;;
4726;SDS011;2377;51.734;8.950;2023-01-24T10:38:52;9.90;;;7.40;;
4726;SDS011;2377;51.734;8.950;2023-01-24T10:41:21;10.27;;;6.70;;
4726;SDS011;2377;51.734;8.950;2023-01-24T10:43:51;10.13;;;6.80;;
4726;SDS011;2377;51.734;8.950;2023-01-24T10:49:50;10.00;;;6.83;;
4726;SDS011;2377;51.734;8.950;2023-01-24T10:52:24;9.20;;;6.73;;
4726;SDS011;2377;51.734;8.950;2023-01-24T10:54:52;9.60;;;6.80;;
4726;SDS011;2377;51.734;8.950;2023-01-24T10:57:28;9.80;;;7.70;;
4726;SDS011;2377;51.734;8.950;2023-01-24T11:00:06;10.57;;;7.50;;
4726;SDS011;2377;51.734;8.950;2023-01-24T11:02:54;13.37;;;7.50;;
4726;SDS011;2377;51.734;8.950;2023-01-24T11:05:34;10.37;;;7.67;;
4726;SDS011;2377;51.734;8.950;2023-01-24T11:08:10;10.00;;;7.80;;
4726;SDS011;2377;51.734;8.950;2023-01-24T11:10:44;12.37;;;7.33;;
4726;SDS011;2377;51.734;8.950;2023-01-24T11:13:23;11.47;;;8.93;;
4726;SDS011;2377;51.734;8.950;2023-01-24T11:16:01;11.20;;;7.90;;
4726;SDS011;2377;51.734;8.950;2023-01-24T11:18:32;9.10;;;7.07;;
4726;SDS011;2377;51.734;8.950;2023-01-24T11:21:11;10.53;;;7.40;;
4726;SDS011;2377;51.734;8.950;2023-01-24T11:23:41;10.50;;;7.93;;
4726;SDS011;2377;51.734;8.950;2023-01-24T11:26:23;10.27;;;7.30;;
4726;SDS011;2377;51.734;8.950;2023-01-24T11:28:56;10.73;;;8.17;;
4726;SDS011;2377;51.734;8.950;2023-01-24T11:31:28;11.33;;;8.03;;
4726;SDS011;2377;51.734;8.950;2023-01-24T11:34:14;10.43;;;7.47;;
4726;SDS011;2377;51.734;8.950;2023-01-24T11:37:10;10.33;;;8.03;;
4726;SDS011;2377;51.734;8.950;2023-01-24T11:40:04;11.57;;;7.77;;
4726;SDS011;2377;51.734;8.950;2023-01-24T11:42:51;11.43;;;8.37;;
4726;SDS011;2377;51.734;8.950;2023-01-24T11:45:38;9.67;;;7.70;;
4726;SDS011;2377;51.734;8.950;2023-01-24T11:48:28;12.13;;;8.13;;
4726;SDS011;2377;51.734;8.950;2023-01-24T11:51:09;12.00;;;8.63;;
4726;SDS011;2377;51.734;8.950;2023-01-24T11:53:51;10.70;;;7.77;;
4726;SDS011;2377;51.734;8.950;2023-01-24T11:56:36;10.83;;;7.87;;
4726;SDS011;2377;51.734;8.950;2023-01-24T11:59:22;11.53;;;7.67;;
4726;SDS011;2377;51.734;8.950;2023-01-24T12:05:20;10.93;;;8.17;;
4726;SDS011;2377;51.734;8.950;2023-01-24T12:08:16;13.30;;;8.17;;
4726;SDS011;2377;51.734;8.950;2023-01-24T12:11:15;12.40;;;8.20;;
4726;SDS011;2377;51.734;8.950;2023-01-24T12:13:53;13.00;;;9.07;;
4726;SDS011;2377;51.734;8.950;2023-01-24T12:16:47;12.20;;;8.93;;
4726;SDS011;2377;51.734;8.950;2023-01-24T12:19:33;13.00;;;9.70;;
4726;SDS011;2377;51.734;8.950;2023-01-24T12:22:28;11.53;;;8.90;;
4726;SDS011;2377;51.734;8.950;2023-01-24T12:24:58;11.33;;;8.63;;
4726;SDS011;2377;51.734;8.950;2023-01-24T12:27:38;10.73;;;8.90;;
4726;SDS011;2377;51.734;8.950;2023-01-24T12:30:14;12.33;;;8.93;;
4726;SDS011;2377;51.734;8.950;2023-01-24T12:32:54;12.13;;;8.60;;
4726;SDS011;2377;51.734;8.950;2023-01-24T12:35:29;11.00;;;8.27;;
4726;SDS011;2377;51.734;8.950;2023-01-24T12:38:02;11.77;;;8.73;;
4726;SDS011;2377;51.734;8.950;2023-01-24T12:40:43;12.77;;;8.80;;
4726;SDS011;2377;51.734;8.950;2023-01-24T12:43:21;14.50;;;9.80;;
4726;SDS011;2377;51.734;8.950;2023-01-24T12:46:06;13.17;;;8.87;;
4726;SDS011;2377;51.734;8.950;2023-01-24T12:48:42;14.73;;;10.00;;
4726;SDS011;2377;51.734;8.950;2023-01-24T12:51:18;13.50;;;8.90;;
4726;SDS011;2377;51.734;8.950;2023-01-24T12:53:56;11.43;;;8.30;;
4726;SDS011;2377;51.734;8.950;2023-01-24T12:56:31;10.40;;;8.13;;
4726;SDS011;2377;51.734;8.950;2023-01-24T12:59:12;11.53;;;8.43;;
4726;SDS011;2377;51.734;8.950;2023-01-24T13:01:51;11.67;;;8.20;;
4726;SDS011;2377;51.734;8.950;2023-01-24T13:04:48;11.57;;;7.10;;
4726;SDS011;2377;51.734;8.950;2023-01-24T13:07:35;11.70;;;8.43;;
4726;SDS011;2377;51.734;8.950;2023-01-24T13:10:17;9.80;;;7.17;;
4726;SDS011;2377;51.734;8.950;2023-01-24T13:13:03;9.90;;;6.93;;
4726;SDS011;2377;51.734;8.950;2023-01-24T13:15:48;10.40;;;7.77;;
4726;SDS011;2377;51.734;8.950;2023-01-24T13:18:40;11.33;;;7.43;;
4726;SDS011;2377;51.734;8.950;2023-01-24T13:21:22;10.63;;;7.43;;
4726;SDS011;2377;51.734;8.950;2023-01-24T13:27:14;9.70;;;7.00;;
4726;SDS011;2377;51.734;8.950;2023-01-24T13:33:02;11.83;;;8.07;;
4726;SDS011;2377;51.734;8.950;2023-01-24T13:35:31;10.60;;;7.80;;
4726;SDS011;2377;51.734;8.950;2023-01-24T13:38:02;8.83;;;7.00;;
4726;SDS011;2377;51.734;8.950;2023-01-24T13:40:41;12.07;;;7.60;;
4726;SDS011;2377;51.734;8.950;2023-01-24T13:49:34;12.40;;;7.63;;
4726;SDS011;2377;51.734;8.950;2023-01-24T13:58:29;12.20;;;6.77;;
4726;SDS011;2377;51.734;8.950;2023-01-24T14:00:59;9.83;;;6.50;;
4726;SDS011;2377;51.734;8.950;2023-01-24T14:03:33;10.77;;;7.17;;
4726;SDS011;2377;51.734;8.950;2023-01-24T14:06:06;11.70;;;7.63;;
4726;SDS011;2377;51.734;8.950;2023-01-24T14:11:31;10.20;;;7.10;;
4726;SDS011;2377;51.734;8.950;2023-01-24T14:17:46;9.03;;;6.60;;
4726;SDS011;2377;51.734;8.950;2023-01-24T14:20:19;11.20;;;7.23;;
4726;SDS011;2377;51.734;8.950;2023-01-24T14:22:55;11.27;;;7.97;;
4726;SDS011;2377;51.734;8.950;2023-01-24T14:25:38;11.97;;;7.00;;
4726;SDS011;2377;51.734;8.950;2023-01-24T14:28:13;10.30;;;6.90;;
4726;SDS011;2377;51.734;8.950;2023-01-24T14:30:47;10.40;;;6.93;;
4726;SDS011;2377;51.734;8.950;2023-01-24T14:33:27;11.73;;;7.77;;
4726;SDS011;2377;51.734;8.950;2023-01-24T14:36:19;10.27;;;7.50;;
4726;SDS011;2377;51.734;8.950;2023-01-24T14:41:55;12.00;;;7.97;;
4726;SDS011;2377;51.734;8.950;2023-01-24T14:44:26;14.70;;;9.03;;
4726;SDS011;2377;51.734;8.950;2023-01-24T14:46:56;14.00;;;9.10;;
4726;SDS011;2377;51.734;8.950;2023-01-24T14:49:27;10.90;;;7.93;;
4726;SDS011;2377;51.734;8.950;2023-01-24T14:51:58;12.53;;;8.53;;
4726;SDS011;2377;51.734;8.950;2023-01-24T14:54:28;10.80;;;7.30;;
4726;SDS011;2377;51.734;8.950;2023-01-24T14:56:55;12.40;;;8.60;;
4726;SDS011;2377;51.734;8.950;2023-01-24T14:59:22;12.67;;;8.33;;
4726;SDS011;2377;51.734;8.950;2023-01-24T15:01:49;11.03;;;8.30;;
4726;SDS011;2377;51.734;8.950;2023-01-24T15:04:22;11.73;;;8.40;;
4726;SDS011;2377;51.734;8.950;2023-01-24T15:07:10;13.07;;;9.27;;
4726;SDS011;2377;51.734;8.950;2023-01-24T15:09:42;16.00;;;10.00;;
4726;SDS011;2377;51.734;8.950;2023-01-24T15:12:10;13.50;;;9.23;;
4726;SDS011;2377;51.734;8.950;2023-01-24T15:14:50;12.00;;;8.17;;
4726;SDS011;2377;51.734;8.950;2023-01-24T15:17:21;10.73;;;8.50;;
4726;SDS011;2377;51.734;8.950;2023-01-24T15:19:52;11.10;;;7.80;;
4726;SDS011;2377;51.734;8.950;2023-01-24T15:22:24;11.03;;;7.27;;
4726;SDS011;2377;51.734;8.950;2023-01-24T15:24:55;11.50;;;8.07;;
4726;SDS011;2377;51.734;8.950;2023-01-24T15:27:37;12.27;;;7.70;;
4726;SDS011;2377;51.734;8.950;2023-01-24T15:30:11;11.20;;;7.97;;
4726;SDS011;2377;51.734;8.950;2023-01-24T15:32:44;11.17;;;7.97;;
4726;SDS011;2377;51.734;8.950;2023-01-24T15:35:22;10.40;;;7.77;;
4726;SDS011;2377;51.734;8.950;2023-01-24T15:38:09;10.83;;;7.93;;
4726;SDS011;2377;51.734;8.950;2023-01-24T15:40:58;11.50;;;8.27;;
4726;SDS011;2377;51.734;8.950;2023-01-24T15:43:40;14.03;;;9.30;;
4726;SDS011;2377;51.734;8.950;2023-01-24T15:46:24;15.50;;;8.87;;
4726;SDS011;2377;51.734;8.950;2023-01-24T15:49:17;12.60;;;9.20;;
4726;SDS011;2377;51.734;8.950;2023-01-24T15:52:02;12.77;;;8.53;;
4726;SDS011;2377;51.734;8.950;2023-01-24T15:54:45;13.33;;;8.53;;
4726;SDS011;2377;51.734;8.950;2023-01-24T15:57:20;12.57;;;9.10;;
4726;SDS011;2377;51.734;8.950;2023-01-24T15:59:51;13.67;;;9.50;;
4726;SDS011;2377;51.734;8.950;2023-01-24T16:02:23;15.87;;;9.80;;
4726;SDS011;2377;51.734;8.950;2023-01-24T16:04:51;16.40;;;10.70;;
4726;SDS011;2377;51.734;8.950;2023-01-24T16:07:18;12.80;;;9.00;;
4726;SDS011;2377;51.734;8.950;2023-01-24T16:09:46;12.73;;;9.10;;
4726;SDS011;2377;51.734;8.950;2023-01-24T16:12:14;13.60;;;9.47;;
4726;SDS011;2377;51.734;8.950;2023-01-24T16:14:46;12.93;;;8.87;;
4726;SDS011;2377;51.734;8.950;2023-01-24T16:17:17;14.17;;;9.70;;
4726;SDS011;2377;51.734;8.950;2023-01-24T16:19:47;14.27;;;10.03;;